createdAt,value
2023-05-14T00:01:26.168Z,2.95
2023-05-14T00:04:28.968Z,2.05
2023-05-14T00:07:31.757Z,1.83
2023-05-14T00:10:34.167Z,1.98
2023-05-14T00:13:36.920Z,2.28
2023-05-14T00:16:39.376Z,1.77
2023-05-14T00:19:42.863Z,2.45
2023-05-14T00:22:45.458Z,2.60
2023-05-14T00:25:48.436Z,2.10
2023-05-14T00:28:50.996Z,1.53
2023-05-14T00:31:53.864Z,2.03
2023-05-14T00:34:56.267Z,1.98
2023-05-14T00:37:58.905Z,1.87
2023-05-14T00:41:01.348Z,2.40
2023-05-14T00:44:04.044Z,2.25
2023-05-14T00:47:07.351Z,1.60
2023-05-14T00:50:11.293Z,1.95
2023-05-14T00:53:14.109Z,2.38
2023-05-14T00:56:17.184Z,2.70
2023-05-14T00:59:19.869Z,1.80
2023-05-14T01:02:22.382Z,2.28
2023-05-14T01:05:48.894Z,1.80
2023-05-14T01:09:19.035Z,2.27
2023-05-14T01:12:34.723Z,1.10
2023-05-14T01:15:39.559Z,2.47
2023-05-14T01:18:44.150Z,2.05
2023-05-14T01:21:47.039Z,1.70
2023-05-14T01:24:49.639Z,1.00
2023-05-14T01:28:18.749Z,1.92
2023-05-14T01:31:27.984Z,2.17
2023-05-14T01:34:31.715Z,1.45
2023-05-14T01:37:36.610Z,1.65
2023-05-14T01:40:39.765Z,1.30
2023-05-14T01:43:42.548Z,2.20
2023-05-14T01:46:45.306Z,1.92
2023-05-14T01:49:48.069Z,1.88
2023-05-14T01:52:53.536Z,2.13
2023-05-14T01:55:56.994Z,1.50
2023-05-14T01:58:59.399Z,1.50
2023-05-14T02:02:02.311Z,2.83
2023-05-14T02:05:07.018Z,1.58
2023-05-14T02:08:09.803Z,1.95
2023-05-14T02:11:12.542Z,1.17
2023-05-14T02:14:15.383Z,1.50
2023-05-14T02:17:18.114Z,1.92
2023-05-14T02:20:20.621Z,1.88
2023-05-14T02:23:34.043Z,1.48
2023-05-14T02:26:40.860Z,1.55
2023-05-14T02:29:43.483Z,2.40
2023-05-14T02:32:46.414Z,2.10
2023-05-14T02:35:48.914Z,2.65
2023-05-14T02:38:51.590Z,1.95
2023-05-14T02:41:54.797Z,2.30
2023-05-14T02:44:57.251Z,1.83
2023-05-14T02:47:59.996Z,2.28
2023-05-14T02:51:02.772Z,2.72
2023-05-14T02:54:05.737Z,1.95
2023-05-14T02:57:08.755Z,1.55
2023-05-14T03:00:12.334Z,2.03
2023-05-14T03:03:15.489Z,1.57
2023-05-14T03:06:18.367Z,1.92
2023-05-14T03:09:21.270Z,1.48
2023-05-14T03:12:24.133Z,2.63
2023-05-14T03:15:26.670Z,1.60
2023-05-14T03:18:30.725Z,2.20
2023-05-14T03:21:33.437Z,2.20
2023-05-14T03:24:39.308Z,1.83
2023-05-14T03:27:42.087Z,2.60
2023-05-14T03:30:44.952Z,1.70
2023-05-14T03:33:47.791Z,2.17
2023-05-14T03:36:50.442Z,1.67
2023-05-14T03:39:53.334Z,1.70
2023-05-14T03:42:56.182Z,1.77
2023-05-14T03:45:58.848Z,2.40
2023-05-14T03:49:01.790Z,2.30
2023-05-14T03:52:04.552Z,1.52
2023-05-14T03:55:07.459Z,1.92
2023-05-14T03:58:14.575Z,1.75
2023-05-14T04:01:17.221Z,2.00
2023-05-14T04:04:19.917Z,1.80
2023-05-14T04:07:22.597Z,1.83
2023-05-14T04:10:25.597Z,1.73
2023-05-14T04:13:29.310Z,1.40
2023-05-14T04:16:31.872Z,1.48
2023-05-14T04:19:34.755Z,2.10
2023-05-14T04:22:38.690Z,2.25
2023-05-14T04:25:41.381Z,1.80
2023-05-14T04:28:44.081Z,2.63
2023-05-14T04:31:47.037Z,1.55
2023-05-14T04:34:49.774Z,2.00
2023-05-14T04:37:52.318Z,1.88
2023-05-14T04:40:54.956Z,1.70
2023-05-14T04:43:58.985Z,1.70
2023-05-14T04:47:02.080Z,2.10
2023-05-14T04:50:05.023Z,1.48
2023-05-14T04:53:07.524Z,1.60
2023-05-14T04:56:10.868Z,2.17
2023-05-14T04:59:13.772Z,2.13
2023-05-14T05:02:16.150Z,2.22
2023-05-14T05:05:19.028Z,2.00
2023-05-14T05:08:21.466Z,2.50
2023-05-14T05:11:24.231Z,1.85
2023-05-14T05:14:27.067Z,2.00
2023-05-14T05:17:29.904Z,2.20
2023-05-14T05:20:32.816Z,1.60
2023-05-14T05:23:35.243Z,2.28
2023-05-14T05:26:37.906Z,2.45
2023-05-14T05:29:40.902Z,2.65
2023-05-14T05:32:43.995Z,1.75
2023-05-14T05:35:48.199Z,2.13
2023-05-14T05:38:50.700Z,1.98
2023-05-14T05:41:54.439Z,2.35
2023-05-14T05:44:57.156Z,2.27
2023-05-14T05:47:59.687Z,2.22
2023-05-14T05:51:02.509Z,2.80
2023-05-14T05:54:05.011Z,2.35
2023-05-14T05:57:08.016Z,2.30
2023-05-14T06:00:14.213Z,2.15
2023-05-14T06:03:16.801Z,2.10
2023-05-14T06:06:19.650Z,1.70
2023-05-14T06:09:22.043Z,1.58
2023-05-14T06:12:24.790Z,1.60
2023-05-14T06:15:27.467Z,1.53
2023-05-14T06:18:29.924Z,1.40
2023-05-14T06:21:32.630Z,1.17
2023-05-14T06:24:35.359Z,1.48
2023-05-14T06:27:38.076Z,2.20
2023-05-14T06:30:40.753Z,1.92
2023-05-14T06:33:43.332Z,1.95
2023-05-14T06:36:46.094Z,1.73
2023-05-14T06:39:50.516Z,1.73
2023-05-14T06:42:53.178Z,1.85
2023-05-14T06:45:56.063Z,2.63
2023-05-14T06:48:59.696Z,2.25
2023-05-14T06:52:03.648Z,1.90
2023-05-14T06:55:06.521Z,2.47
2023-05-14T06:58:09.747Z,2.17
2023-05-14T07:01:12.769Z,2.03
2023-05-14T07:04:15.466Z,1.90
2023-05-14T07:07:20.741Z,1.90
2023-05-14T07:10:23.706Z,2.67
2023-05-14T07:13:28.645Z,1.90
2023-05-14T07:16:31.658Z,1.70
2023-05-14T07:19:34.182Z,1.77
2023-05-14T07:22:37.026Z,2.42
2023-05-14T07:25:40.837Z,2.15
2023-05-14T07:28:43.630Z,1.88
2023-05-14T07:31:46.579Z,1.73
2023-05-14T07:34:49.542Z,1.80
2023-05-14T07:37:52.635Z,1.57
2023-05-14T07:40:55.128Z,2.20
2023-05-14T07:43:57.808Z,2.30
2023-05-14T07:47:00.548Z,1.70
2023-05-14T07:50:03.674Z,2.25
2023-05-14T07:53:06.569Z,2.10
2023-05-14T07:56:09.015Z,2.03
2023-05-14T07:59:11.603Z,2.05
2023-05-14T08:02:16.070Z,1.90
2023-05-14T08:05:18.663Z,2.10
2023-05-14T08:08:21.737Z,2.43
2023-05-14T08:11:24.385Z,2.08
2023-05-14T08:14:27.330Z,2.28
2023-05-14T08:17:30.240Z,1.90
2023-05-14T08:20:32.813Z,1.70
2023-05-14T08:23:35.799Z,1.50
2023-05-14T08:26:38.988Z,1.55
2023-05-14T08:29:41.780Z,1.83
2023-05-14T08:32:44.250Z,2.55
2023-05-14T08:35:47.070Z,1.98
2023-05-14T08:38:50.467Z,2.03
2023-05-14T08:41:53.786Z,1.98
2023-05-14T08:45:05.816Z,1.88
2023-05-14T08:48:13.494Z,2.10
2023-05-14T08:51:16.105Z,1.85
2023-05-14T08:54:22.561Z,1.92
2023-05-14T08:57:26.564Z,1.73
2023-05-14T09:00:29.823Z,1.65
2023-05-14T09:03:32.785Z,1.80
2023-05-14T09:06:37.835Z,1.80
2023-05-14T09:09:40.818Z,1.50
2023-05-14T09:12:43.257Z,1.63
2023-05-14T09:15:48.057Z,1.77
2023-05-14T09:18:51.447Z,1.80
2023-05-14T09:21:58.326Z,1.85
2023-05-14T09:25:06.676Z,1.75
2023-05-14T09:28:09.679Z,1.98
2023-05-14T09:31:12.418Z,1.77
2023-05-14T09:34:30.680Z,1.92
2023-05-14T09:37:36.716Z,1.95
2023-05-14T09:40:39.375Z,2.23
2023-05-14T09:43:42.001Z,1.80
2023-05-14T09:46:45.699Z,2.28
2023-05-14T09:49:49.234Z,2.20
2023-05-14T09:52:51.658Z,2.10
2023-05-14T09:55:54.289Z,2.35
2023-05-14T09:58:56.829Z,2.00
2023-05-14T10:01:59.956Z,2.20
2023-05-14T10:05:06.019Z,1.80
2023-05-14T10:08:35.629Z,1.88
2023-05-14T10:11:42.826Z,2.17
2023-05-14T10:14:49.827Z,1.95
2023-05-14T10:17:56.837Z,2.13
2023-05-14T10:21:10.457Z,2.03
2023-05-14T10:24:13.337Z,1.80
2023-05-14T10:27:17.463Z,1.50
2023-05-14T10:30:23.268Z,2.03
2023-05-14T10:33:26.204Z,1.85
2023-05-14T10:36:29.047Z,1.80
2023-05-14T10:39:51.856Z,1.70
2023-05-14T10:42:59.144Z,1.50
2023-05-14T10:46:02.790Z,1.65
2023-05-14T10:49:05.397Z,1.23
2023-05-14T10:52:09.487Z,1.70
2023-05-14T10:55:16.933Z,1.60
2023-05-14T10:58:19.597Z,1.92
2023-05-14T11:01:24.148Z,1.25
2023-05-14T11:04:27.830Z,1.48
2023-05-14T11:07:35.999Z,1.60
2023-05-14T11:10:39.430Z,1.80
2023-05-14T11:13:42.944Z,1.23
2023-05-14T11:16:47.161Z,1.25
2023-05-14T11:19:51.161Z,1.58
2023-05-14T11:22:53.760Z,1.90
2023-05-14T11:25:57.125Z,1.50
2023-05-14T11:29:00.080Z,1.70
2023-05-14T11:32:06.049Z,1.23
2023-05-14T11:35:08.914Z,1.38
2023-05-14T11:38:21.278Z,1.40
2023-05-14T11:41:24.070Z,1.42
2023-05-14T11:44:26.698Z,0.97
2023-05-14T11:47:29.960Z,1.50
2023-05-14T11:50:36.670Z,1.60
2023-05-14T11:53:39.385Z,1.00
2023-05-14T11:56:41.941Z,0.90
2023-05-14T11:59:45.347Z,0.90
2023-05-14T12:02:49.813Z,1.27
2023-05-14T12:05:59.921Z,1.65
2023-05-14T12:09:05.499Z,1.00
2023-05-14T12:12:10.118Z,1.23
2023-05-14T12:15:13.801Z,0.87
2023-05-14T12:18:24.552Z,0.80
2023-05-14T12:21:29.090Z,0.77
2023-05-14T12:24:31.723Z,1.20
2023-05-14T12:27:37.811Z,0.80
2023-05-14T12:30:41.322Z,0.70
2023-05-14T12:33:43.690Z,0.90
2023-05-14T12:36:46.254Z,0.80
2023-05-14T12:39:48.830Z,4.50
2023-05-14T12:42:51.344Z,0.88
2023-05-14T12:45:53.946Z,1.10
2023-05-14T12:48:57.110Z,1.42
2023-05-14T12:52:17.413Z,1.60
2023-05-14T12:55:22.522Z,0.97
2023-05-14T12:58:24.945Z,1.60
2023-05-14T13:01:27.590Z,1.27
2023-05-14T13:04:30.069Z,1.58
2023-05-14T13:07:32.903Z,1.17
2023-05-14T13:10:36.099Z,1.52
2023-05-14T13:13:38.509Z,1.67
2023-05-14T13:16:41.139Z,1.37
2023-05-14T13:19:43.614Z,1.70
2023-05-14T13:22:46.490Z,1.85
2023-05-14T13:25:50.019Z,1.40
2023-05-14T13:28:52.918Z,2.15
2023-05-14T13:31:55.543Z,1.77
2023-05-14T13:34:58.008Z,1.88
2023-05-14T13:38:00.762Z,1.63
2023-05-14T13:41:03.845Z,2.08
2023-05-14T13:44:09.435Z,1.92
2023-05-14T13:47:12.180Z,2.07
2023-05-14T13:50:14.822Z,2.10
2023-05-14T13:53:18.021Z,3.13
2023-05-14T13:56:21.495Z,3.17
2023-05-14T13:59:24.051Z,2.28
2023-05-14T14:02:26.550Z,2.20
2023-05-14T14:05:29.709Z,1.67
2023-05-14T14:08:32.409Z,1.95
2023-05-14T14:11:35.412Z,2.05
2023-05-14T14:14:37.743Z,1.80
2023-05-14T14:17:41.861Z,2.20
2023-05-14T14:20:44.344Z,2.58
2023-05-14T14:23:47.387Z,1.73
2023-05-14T14:26:49.925Z,2.83
2023-05-14T14:29:52.381Z,2.42
2023-05-14T14:32:55.096Z,2.00
2023-05-14T14:35:57.588Z,1.95
2023-05-14T14:39:00.158Z,3.03
2023-05-14T14:42:02.842Z,2.65
2023-05-14T14:45:06.115Z,1.77
2023-05-14T14:48:33.940Z,1.77
2023-05-14T14:51:36.655Z,2.20
2023-05-14T14:54:39.161Z,1.90
2023-05-14T14:57:41.807Z,2.20
2023-05-14T15:00:44.393Z,2.72
2023-05-14T15:03:48.430Z,2.72
2023-05-14T15:06:50.830Z,3.42
2023-05-14T15:09:53.400Z,2.85
2023-05-14T15:12:59.023Z,2.80
2023-05-14T15:16:01.541Z,2.45
2023-05-14T15:19:04.185Z,2.33
2023-05-14T15:22:06.713Z,2.25
2023-05-14T15:25:09.628Z,2.40
2023-05-14T15:28:12.195Z,2.07
2023-05-14T15:31:14.658Z,2.67
2023-05-14T15:34:17.252Z,5.22
2023-05-14T15:37:19.650Z,4.80
2023-05-14T15:40:22.371Z,2.53
2023-05-14T15:43:25.144Z,3.05
2023-05-14T15:46:27.707Z,2.22
2023-05-14T15:49:30.368Z,1.97
2023-05-14T15:52:32.838Z,1.73
2023-05-14T15:55:35.632Z,1.90
2023-05-14T15:58:38.374Z,1.80
2023-05-14T16:01:40.951Z,1.73
2023-05-14T16:04:45.282Z,1.77
2023-05-14T16:07:47.777Z,2.10
2023-05-14T16:10:50.272Z,2.13
2023-05-14T16:13:53.015Z,2.85
2023-05-14T16:16:55.491Z,2.42
2023-05-14T16:19:59.445Z,3.17
2023-05-14T16:23:01.885Z,3.20
2023-05-14T16:26:05.740Z,3.08
2023-05-14T16:29:08.437Z,2.90
2023-05-14T16:32:10.967Z,2.85
2023-05-14T16:35:13.867Z,2.60
2023-05-14T16:38:16.376Z,2.53
2023-05-14T16:41:18.917Z,2.97
2023-05-14T16:44:23.217Z,2.17
2023-05-14T16:47:38.965Z,2.40
2023-05-14T16:50:41.574Z,2.07
2023-05-14T16:53:44.073Z,2.60
2023-05-14T16:56:49.241Z,3.15
2023-05-14T16:59:52.260Z,3.63
2023-05-14T17:02:54.779Z,5.68
2023-05-14T17:05:57.522Z,6.13
2023-05-14T17:09:00.037Z,5.63
2023-05-14T17:12:02.854Z,5.88
2023-05-14T17:15:07.312Z,5.25
2023-05-14T17:18:12.068Z,12.80
2023-05-14T17:21:15.212Z,14.20
2023-05-14T17:24:17.677Z,8.50
2023-05-14T17:27:20.809Z,10.93
2023-05-14T17:30:23.475Z,11.60
2023-05-14T17:33:26.022Z,14.10
2023-05-14T17:36:28.724Z,23.88
2023-05-14T17:39:31.234Z,6.00
2023-05-14T17:42:33.867Z,4.22
2023-05-14T17:45:46.264Z,6.18
2023-05-14T17:48:56.646Z,6.90
2023-05-14T17:51:59.248Z,12.83
2023-05-14T17:55:01.659Z,10.23
2023-05-14T17:58:04.316Z,5.13
2023-05-14T18:01:06.917Z,4.37
2023-05-14T18:04:10.075Z,3.42
2023-05-14T18:07:12.692Z,2.88
2023-05-14T18:10:15.123Z,3.65
2023-05-14T18:13:18.294Z,3.80
2023-05-14T18:16:21.033Z,3.30
2023-05-14T18:19:25.650Z,3.47
2023-05-14T18:22:28.481Z,3.63
2023-05-14T18:25:31.449Z,4.13
2023-05-14T18:28:34.231Z,4.03
2023-05-14T18:31:36.884Z,4.10
2023-05-14T18:34:39.288Z,3.80
2023-05-14T18:37:41.925Z,5.43
2023-05-14T18:40:44.681Z,5.80
2023-05-14T18:43:47.244Z,5.35
2023-05-14T18:46:50.392Z,4.93
2023-05-14T18:49:55.974Z,3.95
2023-05-14T18:52:58.611Z,4.27
2023-05-14T18:56:01.135Z,3.00
2023-05-14T18:59:04.418Z,2.17
2023-05-14T19:02:07.232Z,2.10
2023-05-14T19:05:09.919Z,2.33
2023-05-14T19:08:12.786Z,2.30
2023-05-14T19:11:16.323Z,2.08
2023-05-14T19:14:18.948Z,2.22
2023-05-14T19:17:21.712Z,2.22
2023-05-14T19:20:24.233Z,2.05
2023-05-14T19:23:26.946Z,2.23
2023-05-14T19:26:29.651Z,1.73
2023-05-14T19:29:33.608Z,1.60
2023-05-14T19:32:37.685Z,2.17
2023-05-14T19:35:40.644Z,1.83
2023-05-14T19:38:43.491Z,1.95
2023-05-14T19:41:46.008Z,2.22
2023-05-14T19:44:48.574Z,2.47
2023-05-14T19:47:51.574Z,2.30
2023-05-14T19:50:54.504Z,2.88
2023-05-14T19:53:57.130Z,2.03
2023-05-14T19:56:59.636Z,2.35
2023-05-14T20:00:02.418Z,2.35
2023-05-14T20:03:13.699Z,2.50
2023-05-14T20:06:17.537Z,2.35
2023-05-14T20:09:20.180Z,2.70
2023-05-14T20:12:22.898Z,2.83
2023-05-14T20:15:26.387Z,2.80
2023-05-14T20:18:29.476Z,3.00
2023-05-14T20:21:32.102Z,2.72
2023-05-14T20:24:34.855Z,2.33
2023-05-14T20:27:37.472Z,2.58
2023-05-14T20:30:40.808Z,2.60
2023-05-14T20:33:43.601Z,2.70
2023-05-14T20:36:46.045Z,2.60
2023-05-14T20:39:48.640Z,2.83
2023-05-14T20:42:51.177Z,2.30
2023-05-14T20:45:53.900Z,3.03
2023-05-14T20:48:57.201Z,3.00
2023-05-14T20:51:59.824Z,3.83
2023-05-14T20:55:02.580Z,2.50
2023-05-14T20:58:05.088Z,2.92
2023-05-14T21:01:08.199Z,2.38
2023-05-14T21:04:11.017Z,2.93
2023-05-14T21:07:13.531Z,2.63
2023-05-14T21:10:17.116Z,2.55
2023-05-14T21:13:19.586Z,2.70
2023-05-14T21:16:22.222Z,2.63
2023-05-14T21:19:25.061Z,2.75
2023-05-14T21:22:27.722Z,2.13
2023-05-14T21:25:30.419Z,2.53
2023-05-14T21:28:32.918Z,2.17
2023-05-14T21:31:35.623Z,2.45
2023-05-14T21:34:38.227Z,2.53
2023-05-14T21:37:40.952Z,2.08
2023-05-14T21:40:43.487Z,2.90
2023-05-14T21:43:45.870Z,2.75
2023-05-14T21:46:48.987Z,2.25
2023-05-14T21:49:51.639Z,2.65
2023-05-14T21:52:54.254Z,2.30
2023-05-14T21:55:56.926Z,2.40
2023-05-14T21:58:59.561Z,2.58
2023-05-14T22:05:08.051Z,2.03
2023-05-14T22:08:11.074Z,2.78
2023-05-14T22:11:13.978Z,2.30
2023-05-14T22:14:16.437Z,2.63
2023-05-14T22:17:18.930Z,2.22
2023-05-14T22:20:22.374Z,2.33
2023-05-14T22:23:24.762Z,2.10
2023-05-14T22:26:27.233Z,2.70
2023-05-14T22:29:29.662Z,2.38
2023-05-14T22:32:32.300Z,2.75
2023-05-14T22:35:35.194Z,2.70
2023-05-14T22:38:38.263Z,2.40
2023-05-14T22:41:40.803Z,2.13
2023-05-14T22:44:43.175Z,2.53
2023-05-14T22:47:45.796Z,1.85
2023-05-14T22:50:48.398Z,2.63
2023-05-14T22:53:51.121Z,2.65
2023-05-14T22:56:53.677Z,2.83
2023-05-14T22:59:56.445Z,2.13
2023-05-14T23:02:59.170Z,2.50
2023-05-14T23:06:01.724Z,2.73
2023-05-14T23:09:04.142Z,2.28
2023-05-14T23:12:07.089Z,2.42
2023-05-14T23:15:09.807Z,2.20
2023-05-14T23:18:12.620Z,2.25
2023-05-14T23:21:15.788Z,2.80
2023-05-14T23:24:18.309Z,2.03
2023-05-14T23:27:20.948Z,2.30
2023-05-14T23:30:23.426Z,2.03
2023-05-14T23:33:26.541Z,2.30
2023-05-14T23:36:31.415Z,2.63
2023-05-14T23:39:33.858Z,2.63
2023-05-14T23:42:36.414Z,2.45
2023-05-14T23:45:39.023Z,2.58
2023-05-14T23:48:42.214Z,2.17
2023-05-14T23:51:44.625Z,2.33
2023-05-14T23:54:47.532Z,2.30
2023-05-14T23:57:50.043Z,2.47
